sensor_id;sensor_type;location;lat;lon;timestamp;pressure;altitude;pressure_sealevel;temperature;humidity
33697;BME280;20031;43.416;23.232;2022-09-21T00:02:13;100195.84;;;11.16;70.11
33697;BME280;20031;43.416;23.232;2022-09-21T00:04:39;100202.34;;;11.12;69.60
33697;BME280;20031;43.416;23.232;2022-09-21T00:07:04;100202.34;;;11.12;69.54
33697;BME280;20031;43.416;23.232;2022-09-21T00:09:29;100203.50;;;11.09;69.34
33697;BME280;20031;43.416;23.232;2022-09-21T00:11:55;100205.97;;;11.11;69.48
33697;BME280;20031;43.416;23.232;2022-09-21T00:14:21;100209.38;;;11.11;69.30
33697;BME280;20031;43.416;23.232;2022-09-21T00:16:46;100208.22;;;11.06;69.06
33697;BME280;20031;43.416;23.232;2022-09-21T00:19:12;100205.13;;;11.02;69.32
33697;BME280;20031;43.416;23.232;2022-09-21T00:21:38;100200.38;;;10.98;68.96
33697;BME280;20031;43.416;23.232;2022-09-21T00:24:05;100208.63;;;10.93;69.66
33697;BME280;20031;43.416;23.232;2022-09-21T00:26:31;100209.63;;;10.92;69.47
33697;BME280;20031;43.416;23.232;2022-09-21T00:28:59;100204.38;;;10.84;70.34
33697;BME280;20031;43.416;23.232;2022-09-21T00:31:26;100207.94;;;10.83;70.44
33697;BME280;20031;43.416;23.232;2022-09-21T00:33:52;100209.44;;;10.86;70.19
33697;BME280;20031;43.416;23.232;2022-09-21T00:36:19;100210.13;;;10.88;69.66
33697;BME280;20031;43.416;23.232;2022-09-21T00:38:50;100207.34;;;10.89;69.55
33697;BME280;20031;43.416;23.232;2022-09-21T00:41:16;100209.28;;;10.87;68.50
33697;BME280;20031;43.416;23.232;2022-09-21T00:46:47;100210.56;;;10.83;68.55
33697;BME280;20031;43.416;23.232;2022-09-21T00:49:13;100208.56;;;10.77;68.52
33697;BME280;20031;43.416;23.232;2022-09-21T00:51:40;100201.22;;;10.73;69.12
33697;BME280;20031;43.416;23.232;2022-09-21T00:54:10;100204.97;;;10.70;69.07
33697;BME280;20031;43.416;23.232;2022-09-21T00:56:39;100207.56;;;10.70;69.54
33697;BME280;20031;43.416;23.232;2022-09-21T00:59:07;100208.88;;;10.74;69.77
33697;BME280;20031;43.416;23.232;2022-09-21T01:01:34;100208.72;;;10.76;69.91
33697;BME280;20031;43.416;23.232;2022-09-21T01:04:01;100208.41;;;10.79;70.45
33697;BME280;20031;43.416;23.232;2022-09-21T01:06:27;100193.94;;;10.76;71.37
33697;BME280;20031;43.416;23.232;2022-09-21T01:08:55;100200.75;;;10.77;71.83
33697;BME280;20031;43.416;23.232;2022-09-21T01:11:26;100190.66;;;10.74;71.98
33697;BME280;20031;43.416;23.232;2022-09-21T01:14:15;100188.69;;;10.68;71.13
33697;BME280;20031;43.416;23.232;2022-09-21T01:30:39;100172.59;;;10.40;71.18
33697;BME280;20031;43.416;23.232;2022-09-21T01:33:08;100177.81;;;10.40;71.24
33697;BME280;20031;43.416;23.232;2022-09-21T01:35:38;100167.69;;;10.37;71.05
33697;BME280;20031;43.416;23.232;2022-09-21T01:38:14;100168.66;;;10.36;71.17
33697;BME280;20031;43.416;23.232;2022-09-21T01:40:49;100170.94;;;10.39;71.49
33697;BME280;20031;43.416;23.232;2022-09-21T01:43:42;100166.91;;;10.44;71.66
33697;BME280;20031;43.416;23.232;2022-09-21T01:46:13;100164.81;;;10.48;71.18
33697;BME280;20031;43.416;23.232;2022-09-21T01:48:43;100171.34;;;10.52;71.10
33697;BME280;20031;43.416;23.232;2022-09-21T01:51:12;100165.16;;;10.53;71.23
33697;BME280;20031;43.416;23.232;2022-09-21T01:54:19;100168.78;;;10.60;71.00
33697;BME280;20031;43.416;23.232;2022-09-21T01:57:01;100162.75;;;10.59;69.88
33697;BME280;20031;43.416;23.232;2022-09-21T01:59:43;100160.13;;;10.51;70.16
33697;BME280;20031;43.416;23.232;2022-09-21T02:02:18;100156.03;;;10.49;69.88
33697;BME280;20031;43.416;23.232;2022-09-21T02:04:46;100161.25;;;10.49;69.54
33697;BME280;20031;43.416;23.232;2022-09-21T02:07:12;100156.25;;;10.55;69.05
33697;BME280;20031;43.416;23.232;2022-09-21T02:09:39;100159.34;;;10.59;68.52
33697;BME280;20031;43.416;23.232;2022-09-21T02:12:05;100164.19;;;10.54;68.88
33697;BME280;20031;43.416;23.232;2022-09-21T02:14:31;100164.31;;;10.44;69.07
33697;BME280;20031;43.416;23.232;2022-09-21T02:19:54;100165.25;;;10.35;70.20
33697;BME280;20031;43.416;23.232;2022-09-21T02:22:58;100163.25;;;10.29;70.13
33697;BME280;20031;43.416;23.232;2022-09-21T02:28:19;100169.19;;;10.14;71.29
33697;BME280;20031;43.416;23.232;2022-09-21T02:34:15;100155.81;;;10.09;73.25
33697;BME280;20031;43.416;23.232;2022-09-21T02:36:49;100165.03;;;10.04;73.50
33697;BME280;20031;43.416;23.232;2022-09-21T02:39:38;100172.84;;;10.04;74.23
33697;BME280;20031;43.416;23.232;2022-09-21T02:42:16;100179.53;;;10.06;75.11
33697;BME280;20031;43.416;23.232;2022-09-21T02:44:56;100170.91;;;10.06;74.90
33697;BME280;20031;43.416;23.232;2022-09-21T02:47:43;100176.63;;;10.09;75.42
33697;BME280;20031;43.416;23.232;2022-09-21T02:50:22;100174.31;;;10.06;75.56
33697;BME280;20031;43.416;23.232;2022-09-21T02:52:51;100177.88;;;10.05;75.70
33697;BME280;20031;43.416;23.232;2022-09-21T02:55:18;100179.00;;;10.03;75.40
33697;BME280;20031;43.416;23.232;2022-09-21T02:57:46;100175.41;;;9.96;74.93
33697;BME280;20031;43.416;23.232;2022-09-21T03:00:14;100169.44;;;9.86;74.76
33697;BME280;20031;43.416;23.232;2022-09-21T03:02:42;100177.00;;;9.79;74.49
33697;BME280;20031;43.416;23.232;2022-09-21T03:05:09;100176.06;;;9.80;74.25
33697;BME280;20031;43.416;23.232;2022-09-21T03:07:35;100178.81;;;9.79;74.29
33697;BME280;20031;43.416;23.232;2022-09-21T03:10:02;100174.06;;;9.74;74.05
33697;BME280;20031;43.416;23.232;2022-09-21T03:12:28;100187.06;;;9.74;74.82
33697;BME280;20031;43.416;23.232;2022-09-21T03:14:54;100183.47;;;9.75;75.13
33697;BME280;20031;43.416;23.232;2022-09-21T03:17:20;100189.78;;;9.73;75.49
33697;BME280;20031;43.416;23.232;2022-09-21T03:19:46;100183.72;;;9.65;75.90
33697;BME280;20031;43.416;23.232;2022-09-21T03:22:11;100187.44;;;9.62;76.52
33697;BME280;20031;43.416;23.232;2022-09-21T03:24:37;100188.94;;;9.65;76.29
33697;BME280;20031;43.416;23.232;2022-09-21T03:27:12;100179.97;;;9.67;76.75
33697;BME280;20031;43.416;23.232;2022-09-21T03:29:39;100190.38;;;9.67;76.65
33697;BME280;20031;43.416;23.232;2022-09-21T03:32:04;100185.03;;;9.68;76.58
33697;BME280;20031;43.416;23.232;2022-09-21T03:34:30;100195.28;;;9.70;76.72
33697;BME280;20031;43.416;23.232;2022-09-21T03:37:02;100182.44;;;9.68;76.35
33697;BME280;20031;43.416;23.232;2022-09-21T03:39:28;100188.31;;;9.70;76.30
33697;BME280;20031;43.416;23.232;2022-09-21T03:41:53;100187.06;;;9.74;76.37
33697;BME280;20031;43.416;23.232;2022-09-21T03:44:23;100191.28;;;9.75;76.43
33697;BME280;20031;43.416;23.232;2022-09-21T03:46:50;100190.16;;;9.78;75.81
33697;BME280;20031;43.416;23.232;2022-09-21T03:49:16;100192.00;;;9.85;75.79
33697;BME280;20031;43.416;23.232;2022-09-21T03:51:41;100190.25;;;9.86;75.38
33697;BME280;20031;43.416;23.232;2022-09-21T03:54:07;100187.78;;;9.84;75.83
33697;BME280;20031;43.416;23.232;2022-09-21T03:56:33;100189.56;;;9.84;76.04
33697;BME280;20031;43.416;23.232;2022-09-21T03:58:59;100190.41;;;9.84;76.18
33697;BME280;20031;43.416;23.232;2022-09-21T04:01:24;100194.25;;;9.80;76.26
33697;BME280;20031;43.416;23.232;2022-09-21T04:03:50;100190.31;;;9.76;76.47
33697;BME280;20031;43.416;23.232;2022-09-21T04:06:15;100196.47;;;9.75;76.48
33697;BME280;20031;43.416;23.232;2022-09-21T04:08:41;100190.47;;;9.75;76.57
33697;BME280;20031;43.416;23.232;2022-09-21T04:11:16;100199.22;;;9.74;76.51
33697;BME280;20031;43.416;23.232;2022-09-21T04:13:42;100203.91;;;9.70;76.24
33697;BME280;20031;43.416;23.232;2022-09-21T04:16:09;100199.53;;;9.71;76.60
33697;BME280;20031;43.416;23.232;2022-09-21T04:18:36;100198.94;;;9.77;76.77
33697;BME280;20031;43.416;23.232;2022-09-21T04:21:05;100202.22;;;9.79;76.67
33697;BME280;20031;43.416;23.232;2022-09-21T04:23:31;100202.72;;;9.82;76.75
33697;BME280;20031;43.416;23.232;2022-09-21T04:25:56;100205.69;;;9.87;76.49
33697;BME280;20031;43.416;23.232;2022-09-21T04:28:22;100200.19;;;9.90;76.75
33697;BME280;20031;43.416;23.232;2022-09-21T04:30:51;100201.59;;;9.85;76.73
33697;BME280;20031;43.416;23.232;2022-09-21T04:33:17;100193.50;;;9.88;77.21
33697;BME280;20031;43.416;23.232;2022-09-21T04:35:42;100193.59;;;9.96;77.24
33697;BME280;20031;43.416;23.232;2022-09-21T04:38:08;100198.03;;;10.03;76.85
33697;BME280;20031;43.416;23.232;2022-09-21T04:40:33;100200.41;;;10.14;76.65
33697;BME280;20031;43.416;23.232;2022-09-21T04:42:59;100197.19;;;10.20;76.05
33697;BME280;20031;43.416;23.232;2022-09-21T04:45:24;100204.38;;;10.26;75.20
33697;BME280;20031;43.416;23.232;2022-09-21T04:47:49;100192.56;;;10.31;74.50
33697;BME280;20031;43.416;23.232;2022-09-21T04:50:15;100197.94;;;10.38;74.12
33697;BME280;20031;43.416;23.232;2022-09-21T04:52:40;100209.53;;;10.43;72.81
33697;BME280;20031;43.416;23.232;2022-09-21T04:55:07;100204.22;;;10.53;72.30
33697;BME280;20031;43.416;23.232;2022-09-21T04:57:33;100207.88;;;10.68;72.48
33697;BME280;20031;43.416;23.232;2022-09-21T05:00:00;100204.38;;;10.76;71.90
33697;BME280;20031;43.416;23.232;2022-09-21T05:02:25;100210.44;;;10.93;71.70
33697;BME280;20031;43.416;23.232;2022-09-21T05:04:51;100200.06;;;11.09;71.79
33697;BME280;20031;43.416;23.232;2022-09-21T05:07:16;100213.97;;;11.25;71.17
33697;BME280;20031;43.416;23.232;2022-09-21T05:09:42;100210.25;;;11.35;70.60
33697;BME280;20031;43.416;23.232;2022-09-21T05:12:26;100207.88;;;11.50;69.84
33697;BME280;20031;43.416;23.232;2022-09-21T05:14:51;100208.88;;;11.72;69.16
33697;BME280;20031;43.416;23.232;2022-09-21T05:17:17;100203.53;;;11.90;68.83
33697;BME280;20031;43.416;23.232;2022-09-21T05:19:46;100213.28;;;12.04;67.70
33697;BME280;20031;43.416;23.232;2022-09-21T05:22:12;100215.06;;;12.19;67.85
33697;BME280;20031;43.416;23.232;2022-09-21T05:24:37;100208.06;;;12.27;67.35
33697;BME280;20031;43.416;23.232;2022-09-21T05:27:03;100205.59;;;12.34;66.32
33697;BME280;20031;43.416;23.232;2022-09-21T05:29:29;100209.81;;;12.43;65.69
33697;BME280;20031;43.416;23.232;2022-09-21T05:32:01;100212.09;;;12.54;65.71
33697;BME280;20031;43.416;23.232;2022-09-21T05:39:51;100200.19;;;12.97;64.23
33697;BME280;20031;43.416;23.232;2022-09-21T05:42:17;100204.69;;;13.19;63.69
33697;BME280;20031;43.416;23.232;2022-09-21T05:44:43;100198.78;;;13.25;62.25
33697;BME280;20031;43.416;23.232;2022-09-21T05:50:17;100203.53;;;13.22;61.76
33697;BME280;20031;43.416;23.232;2022-09-21T06:03:49;100192.75;;;13.69;62.34
33697;BME280;20031;43.416;23.232;2022-09-21T06:06:16;100205.16;;;13.53;62.67
33697;BME280;20031;43.416;23.232;2022-09-21T06:08:42;100206.97;;;13.75;63.59
33697;BME280;20031;43.416;23.232;2022-09-21T06:11:07;100208.13;;;13.94;63.27
33697;BME280;20031;43.416;23.232;2022-09-21T06:13:33;100214.31;;;13.93;63.70
33697;BME280;20031;43.416;23.232;2022-09-21T06:16:02;100208.25;;;14.01;64.23
33697;BME280;20031;43.416;23.232;2022-09-21T06:18:28;100204.94;;;14.07;63.87
33697;BME280;20031;43.416;23.232;2022-09-21T06:20:54;100206.16;;;14.33;63.02
33697;BME280;20031;43.416;23.232;2022-09-21T06:23:19;100213.78;;;14.42;62.28
33697;BME280;20031;43.416;23.232;2022-09-21T06:25:50;100209.69;;;14.69;61.99
33697;BME280;20031;43.416;23.232;2022-09-21T06:28:16;100198.16;;;14.78;60.43
33697;BME280;20031;43.416;23.232;2022-09-21T06:30:42;100207.63;;;14.64;59.29
33697;BME280;20031;43.416;23.232;2022-09-21T06:33:09;100216.69;;;14.62;60.13
33697;BME280;20031;43.416;23.232;2022-09-21T06:35:35;100223.09;;;15.02;59.58
33697;BME280;20031;43.416;23.232;2022-09-21T06:38:03;100229.88;;;15.26;58.55
33697;BME280;20031;43.416;23.232;2022-09-21T06:40:30;100225.81;;;15.58;58.30
33697;BME280;20031;43.416;23.232;2022-09-21T06:42:57;100219.84;;;15.85;57.59
33697;BME280;20031;43.416;23.232;2022-09-21T06:45:24;100212.06;;;15.98;56.99
33697;BME280;20031;43.416;23.232;2022-09-21T06:47:50;100221.03;;;16.03;56.45
33697;BME280;20031;43.416;23.232;2022-09-21T06:50:15;100228.00;;;16.17;56.42
33697;BME280;20031;43.416;23.232;2022-09-21T06:52:41;100233.56;;;16.29;56.28
33697;BME280;20031;43.416;23.232;2022-09-21T06:55:07;100216.78;;;16.23;56.66
33697;BME280;20031;43.416;23.232;2022-09-21T06:57:34;100226.13;;;16.11;53.39
33697;BME280;20031;43.416;23.232;2022-09-21T06:59:59;100218.75;;;16.00;51.91
33697;BME280;20031;43.416;23.232;2022-09-21T07:02:25;100227.88;;;16.04;50.74
33697;BME280;20031;43.416;23.232;2022-09-21T07:04:50;100219.75;;;15.99;50.58
33697;BME280;20031;43.416;23.232;2022-09-21T07:07:16;100220.88;;;15.90;50.95
33697;BME280;20031;43.416;23.232;2022-09-21T07:09:41;100225.63;;;15.81;51.08
33697;BME280;20031;43.416;23.232;2022-09-21T07:12:07;100230.25;;;15.79;51.80
33697;BME280;20031;43.416;23.232;2022-09-21T07:14:32;100225.13;;;15.71;51.95
33697;BME280;20031;43.416;23.232;2022-09-21T07:16:58;100223.00;;;15.60;51.32
33697;BME280;20031;43.416;23.232;2022-09-21T07:19:24;100227.25;;;15.61;51.61
33697;BME280;20031;43.416;23.232;2022-09-21T07:21:52;100228.69;;;15.63;51.78
33697;BME280;20031;43.416;23.232;2022-09-21T07:24:18;100229.56;;;15.70;51.36
33697;BME280;20031;43.416;23.232;2022-09-21T07:26:43;100225.63;;;15.81;50.72
33697;BME280;20031;43.416;23.232;2022-09-21T07:29:09;100231.19;;;15.92;50.83
33697;BME280;20031;43.416;23.232;2022-09-21T07:31:34;100231.88;;;16.00;50.79
33697;BME280;20031;43.416;23.232;2022-09-21T07:33:59;100239.66;;;16.08;51.02
33697;BME280;20031;43.416;23.232;2022-09-21T07:36:25;100220.94;;;16.18;50.23
33697;BME280;20031;43.416;23.232;2022-09-21T07:38:52;100228.09;;;16.24;49.51
33697;BME280;20031;43.416;23.232;2022-09-21T07:41:18;100234.41;;;16.29;49.66
33697;BME280;20031;43.416;23.232;2022-09-21T07:43:44;100227.50;;;16.28;48.90
33697;BME280;20031;43.416;23.232;2022-09-21T07:46:11;100233.84;;;16.34;49.13
33697;BME280;20031;43.416;23.232;2022-09-21T07:48:37;100234.50;;;16.42;48.85
33697;BME280;20031;43.416;23.232;2022-09-21T07:51:08;100236.84;;;16.58;49.19
33697;BME280;20031;43.416;23.232;2022-09-21T07:53:36;100226.19;;;16.66;48.88
33697;BME280;20031;43.416;23.232;2022-09-21T07:56:03;100225.69;;;16.83;48.08
33697;BME280;20031;43.416;23.232;2022-09-21T07:58:30;100229.81;;;16.98;48.09
33697;BME280;20031;43.416;23.232;2022-09-21T08:01:13;100220.13;;;17.05;47.60
33697;BME280;20031;43.416;23.232;2022-09-21T08:03:39;100233.09;;;17.07;46.61
33697;BME280;20031;43.416;23.232;2022-09-21T08:06:05;100241.25;;;17.18;46.84
33697;BME280;20031;43.416;23.232;2022-09-21T08:08:31;100239.63;;;17.17;46.95
33697;BME280;20031;43.416;23.232;2022-09-21T08:11:03;100236.38;;;17.15;47.20
33697;BME280;20031;43.416;23.232;2022-09-21T08:13:29;100243.03;;;17.11;47.20
33697;BME280;20031;43.416;23.232;2022-09-21T08:16:01;100243.97;;;16.97;48.21
33697;BME280;20031;43.416;23.232;2022-09-21T08:18:27;100248.44;;;16.97;47.94
33697;BME280;20031;43.416;23.232;2022-09-21T08:20:58;100250.44;;;16.95;48.42
33697;BME280;20031;43.416;23.232;2022-09-21T08:23:24;100250.88;;;16.98;48.56
33697;BME280;20031;43.416;23.232;2022-09-21T08:25:57;100247.38;;;16.91;48.60
33697;BME280;20031;43.416;23.232;2022-09-21T08:28:24;100241.66;;;17.68;47.92
33697;BME280;20031;43.416;23.232;2022-09-21T08:30:50;100235.06;;;18.24;46.56
33697;BME280;20031;43.416;23.232;2022-09-21T08:33:15;100241.50;;;18.86;44.10
33697;BME280;20031;43.416;23.232;2022-09-21T08:35:40;100232.31;;;19.07;43.31
33697;BME280;20031;43.416;23.232;2022-09-21T08:38:06;100229.63;;;19.27;43.19
33697;BME280;20031;43.416;23.232;2022-09-21T08:40:32;100228.03;;;19.13;43.01
33697;BME280;20031;43.416;23.232;2022-09-21T08:43:06;100228.09;;;18.87;43.68
33697;BME280;20031;43.416;23.232;2022-09-21T08:45:39;100227.78;;;18.39;43.69
33697;BME280;20031;43.416;23.232;2022-09-21T08:48:14;100243.72;;;17.86;44.13
33697;BME280;20031;43.416;23.232;2022-09-21T08:50:47;100237.75;;;17.51;45.32
33697;BME280;20031;43.416;23.232;2022-09-21T08:53:43;100234.53;;;17.49;45.68
33697;BME280;20031;43.416;23.232;2022-09-21T08:56:11;100234.88;;;17.40;45.42
33697;BME280;20031;43.416;23.232;2022-09-21T08:58:37;100230.81;;;17.31;46.05
33697;BME280;20031;43.416;23.232;2022-09-21T09:09:29;100222.56;;;17.47;46.39
33697;BME280;20031;43.416;23.232;2022-09-21T09:20:13;100217.63;;;17.31;47.24
33697;BME280;20031;43.416;23.232;2022-09-21T09:22:43;100222.66;;;17.26;46.94
33697;BME280;20031;43.416;23.232;2022-09-21T09:25:21;100224.81;;;17.16;47.14
33697;BME280;20031;43.416;23.232;2022-09-21T09:27:49;100222.84;;;17.78;46.66
33697;BME280;20031;43.416;23.232;2022-09-21T09:30:26;100217.19;;;18.58;44.53
33697;BME280;20031;43.416;23.232;2022-09-21T09:35:26;100205.59;;;19.35;41.95
33697;BME280;20031;43.416;23.232;2022-09-21T09:38:00;100216.72;;;18.93;43.33
33697;BME280;20031;43.416;23.232;2022-09-21T09:52:06;100205.63;;;19.72;41.76
33697;BME280;20031;43.416;23.232;2022-09-21T09:54:34;100199.91;;;20.30;41.36
33697;BME280;20031;43.416;23.232;2022-09-21T09:57:02;100206.19;;;20.53;40.72
33697;BME280;20031;43.416;23.232;2022-09-21T09:59:37;100201.28;;;20.81;40.30
33697;BME280;20031;43.416;23.232;2022-09-21T10:02:20;100198.91;;;21.08;39.26
33697;BME280;20031;43.416;23.232;2022-09-21T10:05:03;100201.03;;;21.18;37.91
33697;BME280;20031;43.416;23.232;2022-09-21T10:07:41;100197.72;;;20.69;38.84
33697;BME280;20031;43.416;23.232;2022-09-21T10:15:54;100196.72;;;19.23;42.21
33697;BME280;20031;43.416;23.232;2022-09-21T10:18:31;100189.59;;;19.98;41.54
33697;BME280;20031;43.416;23.232;2022-09-21T10:23:28;100203.78;;;20.27;39.15
33697;BME280;20031;43.416;23.232;2022-09-21T10:26:04;100191.69;;;20.13;40.86
33697;BME280;20031;43.416;23.232;2022-09-21T10:28:30;100191.53;;;20.75;39.75
33697;BME280;20031;43.416;23.232;2022-09-21T10:33:48;100179.03;;;20.82;38.95
33697;BME280;20031;43.416;23.232;2022-09-21T10:36:41;100181.81;;;20.51;38.83
33697;BME280;20031;43.416;23.232;2022-09-21T10:42:09;100189.53;;;19.73;40.80
33697;BME280;20031;43.416;23.232;2022-09-21T10:44:39;100191.13;;;20.11;39.56
33697;BME280;20031;43.416;23.232;2022-09-21T10:47:21;100192.88;;;20.42;39.29
33697;BME280;20031;43.416;23.232;2022-09-21T10:49:52;100182.66;;;20.69;38.58
33697;BME280;20031;43.416;23.232;2022-09-21T10:52:23;100171.09;;;20.82;37.98
33697;BME280;20031;43.416;23.232;2022-09-21T10:54:51;100177.75;;;20.91;37.93
33697;BME280;20031;43.416;23.232;2022-09-21T10:57:21;100168.38;;;21.35;38.03
33697;BME280;20031;43.416;23.232;2022-09-21T10:59:47;100167.25;;;21.60;37.48
33697;BME280;20031;43.416;23.232;2022-09-21T11:05:11;100152.09;;;20.67;38.56
33697;BME280;20031;43.416;23.232;2022-09-21T11:15:50;100141.81;;;21.42;37.45
33697;BME280;20031;43.416;23.232;2022-09-21T11:18:29;100143.00;;;21.98;36.77
33697;BME280;20031;43.416;23.232;2022-09-21T11:21:05;100139.81;;;21.66;35.74
33697;BME280;20031;43.416;23.232;2022-09-21T11:23:51;100141.97;;;21.29;36.26
33697;BME280;20031;43.416;23.232;2022-09-21T11:29:01;100137.75;;;20.39;37.16
33697;BME280;20031;43.416;23.232;2022-09-21T11:31:36;100134.59;;;20.66;37.47
33697;BME280;20031;43.416;23.232;2022-09-21T11:39:52;100128.84;;;21.52;35.00
33697;BME280;20031;43.416;23.232;2022-09-21T11:44:56;100124.25;;;21.70;35.67
33697;BME280;20031;43.416;23.232;2022-09-21T11:58:06;100127.22;;;22.14;33.36
33697;BME280;20031;43.416;23.232;2022-09-21T12:09:25;100121.84;;;21.39;33.59
33697;BME280;20031;43.416;23.232;2022-09-21T12:17:56;100119.53;;;21.60;32.42
33697;BME280;20031;43.416;23.232;2022-09-21T12:20:44;100130.00;;;21.55;32.61
33697;BME280;20031;43.416;23.232;2022-09-21T12:23:18;100130.38;;;21.41;34.31
33697;BME280;20031;43.416;23.232;2022-09-21T12:25:49;100118.56;;;21.26;34.96
33697;BME280;20031;43.416;23.232;2022-09-21T12:28:23;100123.47;;;21.11;35.28
33697;BME280;20031;43.416;23.232;2022-09-21T12:30:57;100117.47;;;20.86;34.64
33697;BME280;20031;43.416;23.232;2022-09-21T12:33:39;100119.31;;;20.86;35.25
33697;BME280;20031;43.416;23.232;2022-09-21T12:38:48;100122.22;;;21.13;36.20
33697;BME280;20031;43.416;23.232;2022-09-21T12:43:59;100144.28;;;21.25;35.82
33697;BME280;20031;43.416;23.232;2022-09-21T12:49:08;100140.81;;;21.54;36.11
33697;BME280;20031;43.416;23.232;2022-09-21T12:51:42;100144.41;;;21.30;37.83
33697;BME280;20031;43.416;23.232;2022-09-21T12:54:24;100145.28;;;20.95;38.14
33697;BME280;20031;43.416;23.232;2022-09-21T13:05:15;100146.53;;;19.23;40.17
33697;BME280;20031;43.416;23.232;2022-09-21T13:13:03;100126.72;;;19.07;41.17
33697;BME280;20031;43.416;23.232;2022-09-21T13:15:43;100127.59;;;19.32;41.95
33697;BME280;20031;43.416;23.232;2022-09-21T13:20:42;100124.78;;;20.13;39.30
33697;BME280;20031;43.416;23.232;2022-09-21T13:23:22;100132.44;;;20.39;39.16
33697;BME280;20031;43.416;23.232;2022-09-21T13:26:03;100116.94;;;20.24;39.21
33697;BME280;20031;43.416;23.232;2022-09-21T13:28:58;100121.47;;;20.17;39.16
33697;BME280;20031;43.416;23.232;2022-09-21T13:36:41;100129.28;;;19.82;39.64
33697;BME280;20031;43.416;23.232;2022-09-21T13:41:33;100125.38;;;19.60;39.85
33697;BME280;20031;43.416;23.232;2022-09-21T13:44:04;100126.13;;;19.67;40.66
33697;BME280;20031;43.416;23.232;2022-09-21T13:49:31;100134.00;;;19.49;38.28
33697;BME280;20031;43.416;23.232;2022-09-21T13:54:37;100137.59;;;19.24;38.73
33697;BME280;20031;43.416;23.232;2022-09-21T14:08:01;100134.41;;;19.09;36.53
33697;BME280;20031;43.416;23.232;2022-09-21T14:10:28;100132.69;;;19.27;36.14
33697;BME280;20031;43.416;23.232;2022-09-21T14:12:56;100139.88;;;19.51;36.67
33697;BME280;20031;43.416;23.232;2022-09-21T14:21:06;100137.56;;;19.61;40.26
33697;BME280;20031;43.416;23.232;2022-09-21T14:23:33;100138.66;;;19.47;40.89
33697;BME280;20031;43.416;23.232;2022-09-21T14:26:00;100138.88;;;19.02;41.95
33697;BME280;20031;43.416;23.232;2022-09-21T14:28:38;100137.38;;;18.75;42.52
33697;BME280;20031;43.416;23.232;2022-09-21T14:31:23;100132.59;;;18.53;43.05
33697;BME280;20031;43.416;23.232;2022-09-21T14:33:55;100129.13;;;18.59;43.19
33697;BME280;20031;43.416;23.232;2022-09-21T14:36:30;100131.53;;;18.67;42.91
33697;BME280;20031;43.416;23.232;2022-09-21T14:39:01;100135.16;;;18.72;43.25
33697;BME280;20031;43.416;23.232;2022-09-21T14:41:34;100133.50;;;18.84;43.03
33697;BME280;20031;43.416;23.232;2022-09-21T14:44:01;100129.00;;;18.91;42.57
33697;BME280;20031;43.416;23.232;2022-09-21T14:47:20;100131.81;;;18.96;42.03
33697;BME280;20031;43.416;23.232;2022-09-21T14:49:44;100137.72;;;18.92;42.90
33697;BME280;20031;43.416;23.232;2022-09-21T14:55:05;100129.81;;;18.29;42.63
33697;BME280;20031;43.416;23.232;2022-09-21T15:05:45;100124.72;;;18.08;39.67
33697;BME280;20031;43.416;23.232;2022-09-21T15:14:25;100130.38;;;17.47;42.17
33697;BME280;20031;43.416;23.232;2022-09-21T15:16:52;100142.69;;;17.27;43.41
33697;BME280;20031;43.416;23.232;2022-09-21T15:19:26;100138.94;;;17.09;42.97
33697;BME280;20031;43.416;23.232;2022-09-21T15:22:10;100142.72;;;16.87;43.99
33697;BME280;20031;43.416;23.232;2022-09-21T15:24:56;100151.75;;;16.72;44.52
33697;BME280;20031;43.416;23.232;2022-09-21T15:27:28;100150.25;;;16.56;45.36
33697;BME280;20031;43.416;23.232;2022-09-21T15:30:03;100148.16;;;16.45;46.35
33697;BME280;20031;43.416;23.232;2022-09-21T15:32:43;100158.19;;;16.29;47.02
33697;BME280;20031;43.416;23.232;2022-09-21T15:35:22;100162.28;;;16.17;47.92
33697;BME280;20031;43.416;23.232;2022-09-21T15:37:49;100169.31;;;16.10;47.63
33697;BME280;20031;43.416;23.232;2022-09-21T15:40:27;100172.09;;;16.02;48.08
33697;BME280;20031;43.416;23.232;2022-09-21T15:48:11;100175.59;;;15.88;48.31
33697;BME280;20031;43.416;23.232;2022-09-21T15:50:39;100171.50;;;15.80;48.89
33697;BME280;20031;43.416;23.232;2022-09-21T15:53:17;100166.63;;;15.77;49.82
33697;BME280;20031;43.416;23.232;2022-09-21T15:55:47;100184.56;;;15.73;50.37
33697;BME280;20031;43.416;23.232;2022-09-21T15:58:33;100179.88;;;15.69;50.49
33697;BME280;20031;43.416;23.232;2022-09-21T16:01:13;100181.03;;;15.66;50.93
33697;BME280;20031;43.416;23.232;2022-09-21T16:03:40;100172.84;;;15.55;51.23
33697;BME280;20031;43.416;23.232;2022-09-21T16:06:25;100181.28;;;15.50;51.01
33697;BME280;20031;43.416;23.232;2022-09-21T16:08:50;100185.66;;;15.43;51.57
33697;BME280;20031;43.416;23.232;2022-09-21T16:13:46;100184.53;;;15.32;52.36
33697;BME280;20031;43.416;23.232;2022-09-21T16:16:31;100189.50;;;15.27;52.96
33697;BME280;20031;43.416;23.232;2022-09-21T16:18:57;100190.34;;;15.27;53.44
33697;BME280;20031;43.416;23.232;2022-09-21T16:23:54;100187.44;;;15.22;53.74
33697;BME280;20031;43.416;23.232;2022-09-21T16:26:27;100197.94;;;15.22;54.12
33697;BME280;20031;43.416;23.232;2022-09-21T16:31:40;100201.22;;;15.24;54.36
33697;BME280;20031;43.416;23.232;2022-09-21T16:34:28;100201.38;;;15.23;54.25
33697;BME280;20031;43.416;23.232;2022-09-21T16:36:57;100196.66;;;15.18;54.83
33697;BME280;20031;43.416;23.232;2022-09-21T16:39:23;100211.16;;;15.14;55.06